METAR TAF

[Source: ADDS]
METAR
LFCR 231030Z AUTO 25007KT 210V300 6000 RA FEW007/// BKN014/// BKN028/// ///CB 13/12 Q1018 TEMPO 27015G25KT 4000 -TSRA BKN009 BKN050CB =
AMD LFCR 230955Z 2309/2406 31010KT 9999 SCT016 BKN060 TEMPO 2309/2318 -SHRA BKN009 BKN050TCU PROB30 TEMPO 2309/2315 27015G25KT 4000 -TSRA BKN009 BKN050CB BECMG 2318/2320 BKN012 TEMPO 2320/2406 BKN006 BECMG 2402/2404 VRB02KT PROB40 TEMPO 2403/2406 3000 BR OVC002 LFBA 231030Z AUTO 25008KT 220V280 9999 SCT021 BKN028 BKN033 18/14 Q1017 TEMPO 27015G25KT 3000 TSRA BKN018CB =
AMD LFBA 230800Z 2308/2315 27010KT 9999 BKN040 TEMPO 2308/2315 4000 SHRA FEW018CB BKN020TCU PROB40 TEMPO 2310/2315 27015G25KT 3000 TSRA BKN018CB LFSL 231030Z AUTO 19005KT 150V230 9999 OVC013 15/13 Q1017 TEMPO 4000 -TSRA BKN010 BKN040CB =
AMD LFSL 230930Z 2309/2318 16005KT 9999 SCT030 BKN080 TEMPO 2309/2318 4000 SHRA BKN003 BKN050TCU BECMG 2309/2310 24010KT PROB30 TEMPO 2309/2315 4000 -TSRA BKN010 BKN040CB LFLW 231030Z AUTO 29001KT 9999 -RA FEW010/// SCT043/// BKN060/// ///TCU 14/12 Q1017 TEMPO 4000 SHRA BKN009 BKN040CB =
LFLW 230800Z 2309/2318 VRB02KT 9999 BKN018 BKN060 TEMPO 2309/2318 26010KT 4000 SHRA BKN011 BKN050TCU PROB30 TEMPO 2309/2312 4000 -TSRA BKN009 BKN040CB
TAF
AMD LFCR 230955Z 2309/2406 31010KT 9999 SCT016 BKN060 TEMPO 2309/2318 -SHRA BKN009 BKN050TCU PROB30 TEMPO 2309/2315 27015G25KT 4000 -TSRA BKN009 BKN050CB BECMG 2318/2320 BKN012 TEMPO 2320/2406 BKN006 BECMG 2402/2404 VRB02KT PROB40 TEMPO 2403/2406 3000 BR OVC002 =
AMD LFBA 230800Z 2308/2315 27010KT 9999 BKN040 TEMPO 2308/2315 4000 SHRA FEW018CB BKN020TCU PROB40 TEMPO 2310/2315 27015G25KT 3000 TSRA BKN018CB =
AMD LFSL 230930Z 2309/2318 16005KT 9999 SCT030 BKN080 TEMPO 2309/2318 4000 SHRA BKN003 BKN050TCU BECMG 2309/2310 24010KT PROB30 TEMPO 2309/2315 4000 -TSRA BKN010 BKN040CB =
LFLW 230800Z 2309/2318 VRB02KT 9999 BKN018 BKN060 TEMPO 2309/2318 26010KT 4000 SHRA BKN011 BKN050TCU PROB30 TEMPO 2309/2312 4000 -TSRA BKN009 BKN040CB =
SR / SS: 06:19 / 16:56 UTC (LFCC 2020-10-23)